Time;durP1;ratioP1;P1;durP2;ratioP2;P2;SDS_P1;SDS_P2;PMS_P1;PMS_P2;Temp;Humidity;BMP_temperature;BMP_pressure;BME280_temperature;BME280_humidity;BME280_pressure;Samples;Min_cycle;Max_cycle;Signal;HPM_P1;HPM_P2
2021/04/19 00:00:35;;;;;;;;;;;;;;;22.13;33.52;102133.66;2188455;39;114076;-59
2021/04/19 00:02:34;;;;;;;;;;;;;;;22.11;33.38;102127.50;2193230;39;114044;-57
2021/04/19 00:04:13;;;;;;;;;;;;;;;22.11;33.67;102122.69;2193085;39;114027;-57
2021/04/19 00:05:44;;;;;;;;;;;;;;;22.11;33.73;102133.13;2192893;39;113865;-59
2021/04/19 00:07:43;;;;;;;;;;;;;;;22.09;33.23;102121.28;2194607;39;116648;-57
2021/04/19 00:09:42;;;;;;;;;;;;;;;22.08;33.50;102128.91;2195138;39;113930;-58
2021/04/19 00:11:22;;;;;;;;;;;;;;;22.07;33.45;102124.41;2193995;39;114201;-57
2021/04/19 00:12:53;;;;;;;;;;;;;;;22.07;33.28;102130.06;2192633;39;114338;-55
2021/04/19 00:14:24;;;;;;;;;;;;;;;22.08;33.32;102128.91;2189582;39;114188;-56
2021/04/19 00:15:56;;;;;;;;;;;;;;;22.08;33.55;102131.72;2198914;39;115055;-56
2021/04/19 00:17:55;;;;;;;;;;;;;;;22.08;33.18;102128.06;2188992;39;114151;-57
2021/04/19 00:19:26;;;;;;;;;;;;;;;22.03;33.61;102117.66;2188271;39;114967;-56
2021/04/19 00:20:58;;;;;;;;;;;;;;;22.05;33.61;102123.00;2187557;39;115066;-59
2021/04/19 00:22:29;;;;;;;;;;;;;;;22.03;33.45;102123.28;2188294;39;114775;-56
2021/04/19 00:24:01;;;;;;;;;;;;;;;22.05;33.29;102117.38;2188282;39;114997;-55
2021/04/19 00:25:32;;;;;;;;;;;;;;;22.03;33.45;102126.09;2188346;39;114715;-57
2021/04/19 00:27:31;;;;;;;;;;;;;;;22.03;33.52;102116.84;2188427;39;113797;-56
2021/04/19 00:29:30;;;;;;;;;;;;;;;22.01;33.68;102114.31;2193415;39;113883;-55
2021/04/19 00:31:33;;;;;;;;;;;;;;;22.02;33.79;102104.75;2188715;39;114212;-55
2021/04/19 00:33:31;;;;;;;;;;;;;;;22.01;33.45;102113.47;2188443;39;113918;-55
2021/04/19 00:35:31;;;;;;;;;;;;;;;22.02;33.38;102107.56;2187455;39;114072;-58
2021/04/19 00:37:33;;;;;;;;;;;;;;;22.01;33.52;102102.22;2189316;39;113962;-55
2021/04/19 00:39:32;;;;;;;;;;;;;;;21.98;33.69;102100.84;2189694;39;114149;-56
2021/04/19 00:41:32;;;;;;;;;;;;;;;21.98;33.76;102100.84;2187106;39;113991;-57
2021/04/19 00:43:31;;;;;;;;;;;;;;;21.98;33.36;102097.19;2188868;39;114448;-55
2021/04/19 00:45:30;;;;;;;;;;;;;;;21.95;33.77;102101.41;2192605;39;114047;-55
2021/04/19 00:47:29;;;;;;;;;;;;;;;21.95;33.80;102103.34;2186571;39;114680;-55
2021/04/19 00:49:28;;;;;;;;;;;;;;;21.94;33.76;102107.34;2192447;39;114009;-55
2021/04/19 00:51:28;;;;;;;;;;;;;;;21.94;33.89;102101.69;2189864;39;114043;-55
2021/04/19 00:53:27;;;;;;;;;;;;;;;21.89;34.12;102099.72;2187898;39;114118;-56
2021/04/19 00:55:27;;;;;;;;;;;;;;;21.90;33.87;102097.72;2188980;39;114223;-58
2021/04/19 00:57:28;;;;;;;;;;;;;;;21.92;34.40;102095.47;2187147;39;114006;-56
2021/04/19 00:59:27;;;;;;;;;;;;;;;21.93;34.17;102094.38;2188542;39;114144;-56
2021/04/19 01:01:05;;;;;;;;;;;;;;;21.91;33.83;102102.22;2188147;39;116247;-58
2021/04/19 01:02:40;;;;;;;;;;;;;;;21.91;34.21;102096.59;2186912;39;115671;-57
2021/04/19 01:04:15;;;;;;;;;;;;;;;21.91;34.33;102096.59;2189539;39;115473;-57
2021/04/19 01:05:47;;;;;;;;;;;;;;;21.91;34.06;102096.59;2189296;39;115622;-58
2021/04/19 01:07:19;;;;;;;;;;;;;;;21.89;34.20;102090.44;2187391;39;114044;-57
2021/04/19 01:08:50;;;;;;;;;;;;;;;21.89;34.33;102090.44;2188782;39;114269;-56
2021/04/19 01:10:22;;;;;;;;;;;;;;;21.87;34.27;102089.88;2186913;39;114437;-58
2021/04/19 01:11:53;;;;;;;;;;;;;;;21.88;34.23;102086.78;2188914;39;116364;-58
2021/04/19 01:13:24;;;;;;;;;;;;;;;21.85;34.51;102086.53;2188771;39;114280;-57
2021/04/19 01:15:23;;;;;;;;;;;;;;;21.86;34.52;102082.56;2187739;39;114196;-57
2021/04/19 01:17:23;;;;;;;;;;;;;;;21.85;34.37;102090.16;2190495;39;113915;-55
2021/04/19 01:18:56;;;;;;;;;;;;;;;21.84;34.46;102080.06;2195157;39;114185;-59
2021/04/19 01:20:29;;;;;;;;;;;;;;;21.84;34.37;102080.06;2194352;39;113882;-59
2021/04/19 01:22:02;;;;;;;;;;;;;;;21.84;34.62;102076.41;2194108;39;114092;-58
2021/04/19 01:23:36;;;;;;;;;;;;;;;21.82;34.41;102082.31;2194710;39;114508;-55
2021/04/19 01:25:19;;;;;;;;;;;;;;;21.82;34.41;102081.47;2193145;39;114764;-57
2021/04/19 01:26:50;;;;;;;;;;;;;;;21.82;34.78;102078.66;2195226;39;114022;-58
2021/04/19 01:28:22;;;;;;;;;;;;;;;21.79;34.93;102074.44;2199425;39;114072;-56
2021/04/19 01:29:59;;;;;;;;;;;;;;;21.77;34.95;102070.22;2198707;39;114127;-58
2021/04/19 01:31:30;;;;;;;;;;;;;;;21.79;34.60;102065.16;2193850;39;115087;-59
2021/04/19 01:33:29;;;;;;;;;;;;;;;21.78;34.79;102069.09;2195784;39;114276;-59
2021/04/19 01:35:10;;;;;;;;;;;;;;;21.78;34.57;102064.31;2192030;39;114924;-58
2021/04/19 01:36:42;;;;;;;;;;;;;;;21.79;34.53;102067.97;2193972;39;116780;-57
2021/04/19 01:38:26;;;;;;;;;;;;;;;21.78;34.54;102060.66;2195094;39;114972;-58
2021/04/19 01:39:57;;;;;;;;;;;;;;;21.77;34.79;102059.81;2196092;39;115722;-56
2021/04/19 01:41:29;;;;;;;;;;;;;;;21.78;34.88;102063.47;2193586;39;114870;-58
2021/04/19 01:43:09;;;;;;;;;;;;;;;21.74;34.74;102060.41;2192548;39;114949;-55
2021/04/19 01:44:40;;;;;;;;;;;;;;;21.74;34.88;102058.44;2192277;39;114823;-59
2021/04/19 01:46:11;;;;;;;;;;;;;;;21.75;34.55;102067.72;2195571;39;114990;-56
2021/04/19 01:47:43;;;;;;;;;;;;;;;21.74;34.59;102063.22;2195008;39;119087;-56
2021/04/19 01:49:42;;;;;;;;;;;;;;;21.74;34.70;102066.03;2192450;39;113820;-56
2021/04/19 01:51:42;;;;;;;;;;;;;;;21.71;35.00;102061.81;2193050;39;114961;-55
2021/04/19 01:53:13;;;;;;;;;;;;;;;21.72;34.72;102060.69;2201268;39;115003;-56
2021/04/19 01:54:44;;;;;;;;;;;;;;;21.70;34.93;102057.34;2193636;39;116445;-56
2021/04/19 01:56:15;;;;;;;;;;;;;;;21.70;34.72;102062.13;2193249;39;115709;-57
2021/04/19 01:57:51;;;;;;;;;;;;;;;21.70;34.75;102053.69;2195966;39;115642;-54
2021/04/19 01:59:24;;;;;;;;;;;;;;;21.69;34.67;102054.81;2192784;39;115966;-57
2021/04/19 02:00:59;;;;;;;;;;;;;;;21.66;34.70;102058.22;2187809;39;115442;-57
2021/04/19 02:02:34;;;;;;;;;;;;;;;21.66;34.32;102049.78;2191383;39;115363;-59
2021/04/19 02:04:15;;;;;;;;;;;;;;;21.64;34.35;102057.66;2191938;39;115864;-55
2021/04/19 02:06:36;;;;;;;;;;;;;;;21.64;34.68;102057.66;2194756;39;114036;-58
2021/04/19 02:08:46;;;;;;;;;;;;;;;21.61;34.56;102058.22;2191998;39;114129;-55
2021/04/19 02:10:34;;;;;;;;;;;;;;;21.60;34.40;102057.38;2192612;39;116312;-58
2021/04/19 02:12:38;;;;;;;;;;;;;;;21.60;34.59;102056.53;2192647;39;114168;-59
2021/04/19 02:14:57;;;;;;;;;;;;;;;21.57;34.49;102057.13;2193520;39;114609;-56
2021/04/19 02:17:02;;;;;;;;;;;;;;;21.57;34.35;102059.94;2191600;39;114018;-55
2021/04/19 02:19:17;;;;;;;;;;;;;;;21.54;34.74;102064.16;2189295;39;114299;-57
2021/04/19 02:21:20;;;;;;;;;;;;;;;21.56;34.54;102061.06;2185717;39;113825;-58
2021/04/19 02:23:36;;;;;;;;;;;;;;;21.56;34.84;102058.25;2188908;39;113800;-57
2021/04/19 02:25:10;;;;;;;;;;;;;;;21.52;34.61;102060.81;2189848;39;114149;-59
2021/04/19 02:26:58;;;;;;;;;;;;;;;21.51;34.53;102055.47;2187680;39;114318;-55
2021/04/19 02:28:33;;;;;;;;;;;;;;;21.50;34.95;102054.63;2189172;39;114078;-57
2021/04/19 02:30:34;;;;;;;;;;;;;;;21.49;34.60;102058.56;2187710;39;114501;-54
2021/04/19 02:32:19;;;;;;;;;;;;;;;21.48;34.94;102054.06;2187987;39;114518;-55
2021/04/19 02:33:53;;;;;;;;;;;;;;;21.48;35.01;102061.66;2190324;39;114097;-56
2021/04/19 02:40:45;;;;;;;;;;;;;;;21.47;34.91;102048.72;2184349;39;113949;-58
2021/04/19 02:42:18;;;;;;;;;;;;;;;21.45;34.99;102045.34;2190461;39;114059;-57
2021/04/19 02:44:20;;;;;;;;;;;;;;;21.43;34.90;102044.81;2192394;39;113936;-58
2021/04/19 02:46:20;;;;;;;;;;;;;;;21.46;35.15;102047.03;2191914;39;113972;-56
2021/04/19 02:48:22;;;;;;;;;;;;;;;21.44;35.24;102049.31;2193597;39;113584;-56
2021/04/19 02:50:23;;;;;;;;;;;;;;;21.41;34.94;102045.09;2188132;39;113756;-56
2021/04/19 02:52:03;;;;;;;;;;;;;;;21.43;34.95;102042.00;2187491;39;114939;-59
2021/04/19 02:53:36;;;;;;;;;;;;;;;21.42;35.03;102040.31;2190158;39;114832;-55
2021/04/19 02:55:11;;;;;;;;;;;;;;;21.40;34.99;102042.56;2188172;39;117686;-56
2021/04/19 02:56:43;;;;;;;;;;;;;;;21.41;35.18;102035.81;2188699;39;114966;-58
2021/04/19 02:58:19;;;;;;;;;;;;;;;21.38;35.24;102040.06;2186329;39;115466;-55
2021/04/19 02:59:51;;;;;;;;;;;;;;;21.37;35.19;102035.56;2201957;39;114827;-55
2021/04/19 03:01:32;;;;;;;;;;;;;;;21.37;34.97;102035.56;2192325;39;114864;-55
2021/04/19 03:03:08;;;;;;;;;;;;;;;21.36;34.90;102031.06;2192710;39;114842;-58
2021/04/19 03:05:10;;;;;;;;;;;;;;;21.36;35.21;102033.88;2191540;39;113610;-56
2021/04/19 03:06:50;;;;;;;;;;;;;;;21.35;35.12;102037.81;2192861;39;114984;-58
2021/04/19 03:08:27;;;;;;;;;;;;;;;21.36;35.18;102036.69;2189635;39;114391;-56
2021/04/19 03:10:00;;;;;;;;;;;;;;;21.38;34.77;102042.03;2192126;39;114963;-58
2021/04/19 03:11:35;;;;;;;;;;;;;;;21.35;35.12;102032.19;2191623;39;115720;-58
2021/04/19 03:13:35;;;;;;;;;;;;;;;21.35;34.90;102032.19;2188409;39;114415;-56
2021/04/19 03:15:16;;;;;;;;;;;;;;;21.34;35.29;102043.72;2191728;39;115996;-67
2021/04/19 03:16:49;;;;;;;;;;;;;;;21.33;35.23;102039.22;2190413;39;115657;-56
2021/04/19 03:18:33;;;;;;;;;;;;;;;21.30;34.93;102040.66;2195536;39;116298;-57
2021/04/19 03:20:38;;;;;;;;;;;;;;;21.28;35.33;102040.94;2199208;39;115771;-58
2021/04/19 03:22:40;;;;;;;;;;;;;;;21.29;34.93;102036.16;2193649;39;114293;-56
2021/04/19 03:24:42;;;;;;;;;;;;;;;21.27;35.22;102036.44;2195296;39;114116;-59
2021/04/19 03:26:42;;;;;;;;;;;;;;;21.28;35.41;102028.84;2196242;39;114053;-59
2021/04/19 03:28:43;;;;;;;;;;;;;;;21.27;35.38;102033.63;2195948;39;114014;-58
2021/04/19 03:30:21;;;;;;;;;;;;;;;21.25;35.19;102032.25;2192702;39;115278;-58
2021/04/19 03:31:53;;;;;;;;;;;;;;;21.24;35.20;102028.59;2195989;39;116026;-57
2021/04/19 03:33:25;;;;;;;;;;;;;;;21.25;35.16;102026.63;2199463;39;115557;-58
2021/04/19 03:34:57;;;;;;;;;;;;;;;21.24;35.42;102024.94;2194084;39;115759;-57
2021/04/19 03:36:58;;;;;;;;;;;;;;;21.27;35.30;102024.34;2197881;39;113992;-58
2021/04/19 03:38:57;;;;;;;;;;;;;;;21.24;35.05;102025.78;2198720;39;113595;-56
2021/04/19 03:40:57;;;;;;;;;;;;;;;21.22;35.42;102016.78;2195822;39;113730;-59
2021/04/19 03:43:03;;;;;;;;;;;;;;;21.21;35.48;102025.50;2194358;39;115337;-57
2021/04/19 03:45:04;;;;;;;;;;;;;;;21.20;35.16;102023.81;2196681;39;114038;-56
2021/04/19 03:46:37;;;;;;;;;;;;;;;21.20;35.52;102023.81;2196757;39;114320;-55
2021/04/19 03:48:12;;;;;;;;;;;;;;;21.19;35.51;102020.16;2194199;39;114673;-57
2021/04/19 03:49:53;;;;;;;;;;;;;;;21.18;35.30;102021.28;2195918;39;114064;-58
2021/04/19 03:51:26;;;;;;;;;;;;;;;21.19;35.46;102024.94;2199016;39;113639;-58
2021/04/19 03:53:26;;;;;;;;;;;;;;;21.19;35.37;102013.72;2193871;39;113951;-58
2021/04/19 03:55:27;;;;;;;;;;;;;;;21.19;35.56;102016.53;2193749;39;113843;-58
2021/04/19 03:57:28;;;;;;;;;;;;;;;21.19;35.70;102016.53;2193763;39;114295;-58
2021/04/19 03:59:02;;;;;;;;;;;;;;;21.18;35.49;102021.28;2190680;39;113785;-55
2021/04/19 04:00:33;;;;;;;;;;;;;;;21.16;35.36;102029.19;2194157;39;113708;-57
2021/04/19 04:02:06;;;;;;;;;;;;;;;21.16;35.47;102022.72;2198492;39;114076;-59
2021/04/19 04:04:06;;;;;;;;;;;;;;;21.19;35.27;102017.34;2195583;39;113556;-58
2021/04/19 04:06:07;;;;;;;;;;;;;;;21.16;35.75;102012.31;2193320;39;113928;-57
2021/04/19 04:08:06;;;;;;;;;;;;;;;21.18;35.59;102012.00;2195759;39;115669;-59
2021/04/19 04:10:07;;;;;;;;;;;;;;;21.17;35.57;102007.50;2195263;39;113796;-56
2021/04/19 04:12:06;;;;;;;;;;;;;;;21.18;35.70;102003.59;2194799;39;114278;-56
2021/04/19 04:14:06;;;;;;;;;;;;;;;21.19;35.52;102010.91;2196573;39;113893;-57
2021/04/19 04:16:05;;;;;;;;;;;;;;;21.16;35.83;102006.72;2195502;39;116771;-57
2021/04/19 04:20:25;;;;;;;;;;;;;;;21.17;35.60;102007.50;2196483;39;114831;-56
2021/04/19 04:21:57;;;;;;;;;;;;;;;21.16;35.67;102003.91;2197817;39;115123;-56
2021/04/19 04:23:56;;;;;;;;;;;;;;;21.18;36.05;102007.25;2197602;39;114332;-57
2021/04/19 04:25:30;;;;;;;;;;;;;;;21.24;36.22;102008.91;2198360;39;115180;-58
2021/04/19 04:27:01;;;;;;;;;;;;;;;21.25;36.51;102004.13;2196875;39;115150;-59
2021/04/19 04:28:32;;;;;;;;;;;;;;;21.25;36.36;102006.94;2199596;39;115030;-57
2021/04/19 04:30:34;;;;;;;;;;;;;;;21.25;36.43;102004.13;2196317;39;114622;-58
2021/04/19 04:32:36;;;;;;;;;;;;;;;21.27;36.77;102002.72;2187742;39;113996;-59
2021/04/19 04:34:36;;;;;;;;;;;;;;;21.30;36.57;102002.13;2197532;39;114044;-56
2021/04/19 04:36:12;;;;;;;;;;;;;;;21.35;36.50;102011.69;2199183;39;115708;-59
2021/04/19 04:37:43;;;;;;;;;;;;;;;21.37;36.58;102003.78;2186598;39;115936;-56
2021/04/19 04:39:14;;;;;;;;;;;;;;;21.41;36.54;102005.72;2190949;39;114756;-58
2021/04/19 04:41:13;;;;;;;;;;;;;;;21.47;36.76;102012.19;2196558;39;114351;-57
2021/04/19 04:43:17;;;;;;;;;;;;;;;21.52;36.58;102009.34;2193687;39;115043;-57
2021/04/19 04:44:54;;;;;;;;;;;;;;;21.55;36.75;102012.41;2193350;39;115624;-56
2021/04/19 04:46:56;;;;;;;;;;;;;;;21.61;36.74;102016.03;2195519;39;114168;-57
2021/04/19 04:48:44;;;;;;;;;;;;;;;21.64;36.57;102016.28;2193257;39;115459;-57
2021/04/19 04:50:16;;;;;;;;;;;;;;;21.68;36.52;102013.75;2192878;39;115560;-58
2021/04/19 04:51:56;;;;;;;;;;;;;;;21.71;36.36;102016.81;2193559;39;116128;-59
2021/04/19 04:53:33;;;;;;;;;;;;;;;21.76;36.12;102015.13;2196434;39;115690;-57
2021/04/19 04:55:05;;;;;;;;;;;;;;;21.79;36.02;102021.00;2198897;39;114116;-57
2021/04/19 04:56:43;;;;;;;;;;;;;;;21.82;36.04;102014.78;2197090;39;114540;-60
2021/04/19 04:58:22;;;;;;;;;;;;;;;21.87;36.24;102020.38;2196928;39;114215;-59
2021/04/19 04:59:56;;;;;;;;;;;;;;;21.90;36.30;102021.75;2198023;39;114197;-56
2021/04/19 05:01:28;;;;;;;;;;;;;;;21.96;36.16;102017.81;2200659;39;113942;-56
2021/04/19 05:03:08;;;;;;;;;;;;;;;21.99;36.19;102020.88;2194718;39;113756;-57
2021/04/19 05:04:39;;;;;;;;;;;;;;;22.02;36.33;102016.66;2197769;39;113713;-56
2021/04/19 05:06:12;;;;;;;;;;;;;;;22.04;35.99;102023.66;2198225;39;113554;-55
2021/04/19 05:07:44;;;;;;;;;;;;;;;22.08;36.12;102029.53;2196406;39;113812;-57
2021/04/19 05:09:49;;;;;;;;;;;;;;;22.12;36.36;102019.41;2193585;39;113876;-56
2021/04/19 05:11:48;;;;;;;;;;;;;;;22.17;36.07;102022.16;2192365;39;114198;-57
2021/04/19 05:13:48;;;;;;;;;;;;;;;22.21;35.87;102016.78;2196004;39;113864;-54
2021/04/19 05:15:26;;;;;;;;;;;;;;;22.25;35.91;102021.53;2189504;39;113897;-59
2021/04/19 05:17:06;;;;;;;;;;;;;;;22.28;35.60;102020.09;2197777;39;113963;-57
2021/04/19 05:20:55;;;;;;;;;;;;;;;22.36;35.51;102028.75;2191397;39;114925;-54
2021/04/19 05:22:28;;;;;;;;;;;;;;;22.39;35.71;102027.34;2190374;39;115068;-56
2021/04/19 05:23:59;;;;;;;;;;;;;;;22.42;35.71;102030.41;2190257;39;115031;-57
2021/04/19 05:25:31;;;;;;;;;;;;;;;22.45;35.54;102026.13;2187200;39;115004;-57
2021/04/19 05:27:34;;;;;;;;;;;;;;;22.49;35.16;102030.88;2190983;39;113843;-58
2021/04/19 05:29:09;;;;;;;;;;;;;;;22.52;36.23;102030.31;2192326;39;115216;-55
2021/04/19 05:31:09;;;;;;;;;;;;;;;22.57;35.78;102038.72;2192415;39;114970;-56
2021/04/19 05:32:44;;;;;;;;;;;;;;;22.61;35.46;102034.19;2191717;39;114941;-57
2021/04/19 05:34:16;;;;;;;;;;;;;;;22.63;35.35;102036.69;2191640;39;114783;-57
2021/04/19 05:35:47;;;;;;;;;;;;;;;22.65;35.48;102037.22;2191989;39;115477;-58
2021/04/19 05:37:19;;;;;;;;;;;;;;;22.70;35.50;102033.56;2191871;39;115245;-56
2021/04/19 05:38:57;;;;;;;;;;;;;;;22.72;35.20;102039.72;2188735;39;114381;-57
2021/04/19 05:40:29;;;;;;;;;;;;;;;22.75;35.40;102030.69;2190611;39;114926;-54
2021/04/19 05:42:01;;;;;;;;;;;;;;;22.78;35.20;102038.53;2189298;39;115017;-58
2021/04/19 05:43:41;;;;;;;;;;;;;;;22.81;35.35;102030.31;2190802;39;115257;-54
2021/04/19 05:45:16;;;;;;;;;;;;;;;22.84;35.11;102037.34;2190089;39;115512;-57
2021/04/19 05:46:47;;;;;;;;;;;;;;;22.88;35.16;102035.63;2195783;39;115719;-54
2021/04/19 05:48:19;;;;;;;;;;;;;;;22.90;34.95;102030.50;2192036;39;115802;-54
2021/04/19 05:49:50;;;;;;;;;;;;;;;22.93;34.84;102035.56;2190619;39;116223;-54
2021/04/19 05:51:25;;;;;;;;;;;;;;;22.95;35.04;102027.63;2191209;39;116082;-54
2021/04/19 05:52:57;;;;;;;;;;;;;;;22.98;34.89;102030.72;2197475;39;115294;-56
2021/04/19 05:54:29;;;;;;;;;;;;;;;23.00;34.74;102025.63;2193982;39;115723;-55
2021/04/19 05:56:04;;;;;;;;;;;;;;;23.02;34.83;102031.81;2188818;39;115663;-55
2021/04/19 05:57:47;;;;;;;;;;;;;;;23.05;34.86;102036.00;2192774;39;115633;-58
2021/04/19 05:59:59;;;;;;;;;;;;;;;23.10;34.75;102038.75;2189578;39;114539;-57
2021/04/19 06:01:35;;;;;;;;;;;;;;;23.12;34.61;102030.84;2189134;39;115561;-57
2021/04/19 06:03:08;;;;;;;;;;;;;;;23.15;34.90;102032.22;2191891;39;115820;-58
2021/04/19 06:05:16;;;;;;;;;;;;;;;23.17;34.82;102033.59;2193470;39;114096;-58
2021/04/19 06:07:17;;;;;;;;;;;;;;;23.21;35.11;102025.38;2192365;39;113860;-58
2021/04/19 06:09:20;;;;;;;;;;;;;;;23.25;34.66;102032.09;2191566;39;113875;-56
2021/04/19 06:11:22;;;;;;;;;;;;;;;23.27;34.85;102035.44;2186298;39;113805;-59
2021/04/19 06:13:00;;;;;;;;;;;;;;;23.29;35.10;102031.19;2190805;39;113931;-57
2021/04/19 06:14:35;;;;;;;;;;;;;;;23.31;34.68;102028.91;2191177;39;114118;-54
2021/04/19 06:16:11;;;;;;;;;;;;;;;23.32;34.97;102033.41;2190687;39;113844;-57
2021/04/19 06:17:45;;;;;;;;;;;;;;;23.33;34.76;102035.09;2189152;39;113658;-58
2021/04/19 06:21:27;;;;;;;;;;;;;;;23.36;34.71;102030.81;2194460;39;113966;-58
2021/04/19 06:22:59;;;;;;;;;;;;;;;23.36;34.61;102034.47;2196033;39;113989;-56
2021/04/19 06:24:31;;;;;;;;;;;;;;;23.37;34.47;102039.00;2196774;39;113719;-59
2021/04/19 06:26:02;;;;;;;;;;;;;;;23.38;34.63;102043.50;2194816;39;113846;-55
2021/04/19 06:27:34;;;;;;;;;;;;;;;23.38;34.52;102039.84;2194195;39;113652;-56
2021/04/19 06:29:09;;;;;;;;;;;;;;;23.39;34.42;102044.34;2196261;39;113729;-55
2021/04/19 06:30:41;;;;;;;;;;;;;;;23.39;34.42;102035.88;2197506;39;115572;-56
2021/04/19 06:32:43;;;;;;;;;;;;;;;23.38;34.63;102040.69;2198277;39;113788;-55
2021/04/19 06:34:18;;;;;;;;;;;;;;;23.38;35.01;102037.84;2197463;39;114851;-57
2021/04/19 06:35:50;;;;;;;;;;;;;;;23.37;34.78;102036.16;2194421;39;114996;-59
2021/04/19 06:37:21;;;;;;;;;;;;;;;23.37;35.00;102039.00;2197773;39;114771;-57
2021/04/19 06:39:20;;;;;;;;;;;;;;;23.37;34.89;102030.53;2193621;39;114025;-58
2021/04/19 06:41:20;;;;;;;;;;;;;;;23.38;34.61;102034.19;2192912;39;114421;-55
2021/04/19 06:43:02;;;;;;;;;;;;;;;23.36;34.70;102037.31;2198614;39;115113;-56
2021/04/19 06:45:05;;;;;;;;;;;;;;;23.36;34.93;102036.47;2195821;39;114437;-55
2021/04/19 06:47:06;;;;;;;;;;;;;;;23.38;35.50;102029.41;2193596;39;113769;-57
2021/04/19 06:48:40;;;;;;;;;;;;;;;23.37;35.00;102040.97;2196739;39;114972;-57
2021/04/19 06:50:22;;;;;;;;;;;;;;;23.22;33.87;102039.16;2195936;39;115253;-56
2021/04/19 06:51:54;;;;;;;;;;;;;;;23.25;34.43;102034.91;2196131;39;114918;-58
2021/04/19 06:53:25;;;;;;;;;;;;;;;23.29;34.20;102030.34;2198943;39;115219;-55
2021/04/19 06:54:56;;;;;;;;;;;;;;;23.30;33.89;102030.06;2195955;39;115558;-54
2021/04/19 06:56:57;;;;;;;;;;;;;;;23.31;33.99;102028.91;2198427;39;114077;-57
2021/04/19 06:58:56;;;;;;;;;;;;;;;23.30;33.83;102032.03;2195832;39;114281;-56
2021/04/19 07:00:32;;;;;;;;;;;;;;;23.29;33.76;102028.38;2195684;39;115648;-58
2021/04/19 07:02:05;;;;;;;;;;;;;;;23.19;32.42;102028.50;2198364;39;115732;-55
2021/04/19 07:03:41;;;;;;;;;;;;;;;22.77;30.54;102032.06;2198000;39;115619;-55
2021/04/19 07:05:13;;;;;;;;;;;;;;;22.39;29.97;102033.81;2198115;39;114951;-57
2021/04/19 07:06:52;;;;;;;;;;;;;;;22.20;29.74;102032.84;2198515;39;115606;-57
2021/04/19 07:08:31;;;;;;;;;;;;;;;22.29;31.28;102031.06;2197095;39;115814;-57
2021/04/19 07:10:03;;;;;;;;;;;;;;;22.08;30.14;102033.19;2197435;39;115722;-56
2021/04/19 07:11:37;;;;;;;;;;;;;;;22.00;30.17;102027.34;2196741;39;115859;-57
2021/04/19 07:13:10;;;;;;;;;;;;;;;21.85;30.20;102021.81;2202557;39;115590;-57
2021/04/19 07:14:41;;;;;;;;;;;;;;;22.09;30.31;102022.78;2196987;39;115828;-54
2021/04/19 07:16:13;;;;;;;;;;;;;;;22.15;31.01;102030.91;2195825;39;115638;-56
2021/04/19 07:17:48;;;;;;;;;;;;;;;22.25;31.00;102024.34;2198981;39;115627;-54
2021/04/19 07:19:53;;;;;;;;;;;;;;;22.30;31.08;102020.66;2195976;39;115961;-57
2021/04/19 07:21:37;;;;;;;;;;;;;;;22.30;31.20;102013.06;2198222;39;113775;-56
2021/04/19 07:23:08;;;;;;;;;;;;;;;22.31;31.15;102019.50;2196238;39;113738;-56
2021/04/19 07:24:39;;;;;;;;;;;;;;;22.36;31.35;102016.66;2196471;39;113819;-56
2021/04/19 07:26:12;;;;;;;;;;;;;;;22.37;31.27;102013.53;2196465;39;113835;-58
2021/04/19 07:27:43;;;;;;;;;;;;;;;22.39;31.63;102016.06;2197589;39;114351;-59
2021/04/19 07:29:15;;;;;;;;;;;;;;;22.39;31.91;102013.25;2196095;39;114030;-55
2021/04/19 07:30:56;;;;;;;;;;;;;;;22.39;31.95;102014.09;2198234;39;114116;-56
2021/04/19 07:32:36;;;;;;;;;;;;;;;22.36;31.64;102013.81;2193692;39;114692;-55
2021/04/19 07:34:15;;;;;;;;;;;;;;;22.39;31.65;102014.09;2191985;39;114078;-54
2021/04/19 07:35:47;;;;;;;;;;;;;;;22.40;31.76;102021.38;2195959;39;114230;-55
2021/04/19 07:37:18;;;;;;;;;;;;;;;22.40;31.83;102004.50;2198883;39;113528;-56
2021/04/19 07:38:51;;;;;;;;;;;;;;;22.40;31.84;102012.94;2198099;39;115132;-54
2021/04/19 07:40:36;;;;;;;;;;;;;;;22.41;31.80;102014.63;2191186;39;113797;-54
2021/04/19 07:42:10;;;;;;;;;;;;;;;22.38;31.83;102015.22;2191761;39;115116;-54
2021/04/19 07:43:42;;;;;;;;;;;;;;;22.41;31.72;102016.59;2194963;39;115451;-55
2021/04/19 07:45:18;;;;;;;;;;;;;;;22.37;31.95;102004.25;2190587;39;117907;-55
2021/04/19 07:46:49;;;;;;;;;;;;;;;22.36;31.86;102009.03;2196297;39;114905;-54
2021/04/19 07:48:49;;;;;;;;;;;;;;;22.35;32.05;102017.81;2195171;39;114367;-53
2021/04/19 07:50:24;;;;;;;;;;;;;;;22.36;32.11;102009.03;2197357;39;115112;-55
2021/04/19 07:52:24;;;;;;;;;;;;;;;22.36;32.53;102014.66;2196513;39;113924;-55
2021/04/19 07:54:24;;;;;;;;;;;;;;;22.37;32.64;102013.53;2197798;39;113762;-55
2021/04/19 07:56:24;;;;;;;;;;;;;;;22.37;32.71;102004.25;2196363;39;113970;-57
2021/04/19 07:58:16;;;;;;;;;;;;;;;22.37;32.47;102007.06;2197839;39;114881;-55
2021/04/19 07:59:49;;;;;;;;;;;;;;;22.36;32.98;102009.03;2195625;39;115175;-55
2021/04/19 08:01:20;;;;;;;;;;;;;;;22.38;32.84;102008.75;2196403;39;114838;-55
2021/04/19 08:03:02;;;;;;;;;;;;;;;22.38;33.11;102009.59;2195518;39;114942;-56
2021/04/19 08:04:34;;;;;;;;;;;;;;;22.40;33.21;102012.94;2200147;39;115306;-57
2021/04/19 08:06:20;;;;;;;;;;;;;;;22.40;33.74;102009.28;2194070;39;116649;-56
2021/04/19 08:07:54;;;;;;;;;;;;;;;22.42;34.25;102009.84;2196786;39;115639;-57
2021/04/19 08:09:26;;;;;;;;;;;;;;;22.40;34.66;102010.13;2198605;39;115793;-56
2021/04/19 08:11:14;;;;;;;;;;;;;;;22.38;34.38;102003.13;2197114;39;116452;-56
2021/04/19 08:13:20;;;;;;;;;;;;;;;22.38;34.41;101998.34;2196925;39;114047;-55
2021/04/19 08:14:54;;;;;;;;;;;;;;;22.33;33.69;102005.97;2195098;39;115943;-57
2021/04/19 08:16:25;;;;;;;;;;;;;;;22.35;34.36;102003.72;2196829;39;115583;-57
2021/04/19 08:18:04;;;;;;;;;;;;;;;22.31;33.86;102006.25;2195604;39;115444;-58
2021/04/19 08:21:40;;;;;;;;;;;;;;;22.29;33.80;102007.72;2196951;39;115558;-57
2021/04/19 08:23:12;;;;;;;;;;;;;;;22.29;33.50;102011.38;2195468;39;115664;-57
2021/04/19 08:24:44;;;;;;;;;;;;;;;22.25;33.47;102006.63;2196048;39;115744;-56
2021/04/19 08:26:15;;;;;;;;;;;;;;;22.21;33.30;102000.75;2195696;39;115596;-57
2021/04/19 08:27:48;;;;;;;;;;;;;;;22.20;33.39;102003.84;2197140;39;115238;-54
2021/04/19 08:29:49;;;;;;;;;;;;;;;22.16;33.10;101997.97;2197128;39;115328;-55
2021/04/19 08:31:48;;;;;;;;;;;;;;;22.16;33.28;102004.44;2202484;39;113943;-58
2021/04/19 08:33:22;;;;;;;;;;;;;;;22.14;32.95;101997.41;2196435;39;113813;-55
2021/04/19 08:35:25;;;;;;;;;;;;;;;22.13;33.24;101995.72;2194272;39;115014;-57
2021/04/19 08:37:26;;;;;;;;;;;;;;;22.11;33.19;101995.19;2197131;39;113900;-57
2021/04/19 08:38:58;;;;;;;;;;;;;;;22.11;33.10;101992.38;2197476;39;114170;-56
2021/04/19 08:40:30;;;;;;;;;;;;;;;22.08;33.10;101996.59;2197197;39;114569;-57
2021/04/19 08:42:02;;;;;;;;;;;;;;;22.09;32.86;102006.72;2196622;39;113641;-56
2021/04/19 08:43:35;;;;;;;;;;;;;;;22.07;33.06;101996.91;2195917;39;113930;-59
2021/04/19 08:45:07;;;;;;;;;;;;;;;22.06;33.06;101992.41;2195631;39;114471;-59
2021/04/19 08:46:39;;;;;;;;;;;;;;;22.06;32.90;101993.25;2196539;39;113791;-55
2021/04/19 08:48:11;;;;;;;;;;;;;;;22.03;32.86;101996.63;2197785;39;113842;-58
2021/04/19 08:49:42;;;;;;;;;;;;;;;22.03;32.70;101998.63;2192531;39;114439;-56
2021/04/19 08:51:15;;;;;;;;;;;;;;;22.04;32.74;101997.47;2195226;39;114358;-54
2021/04/19 08:52:46;;;;;;;;;;;;;;;22.00;32.98;101993.56;2197820;39;113992;-55
2021/04/19 08:54:17;;;;;;;;;;;;;;;21.99;32.58;101987.09;2197062;39;114943;-56
2021/04/19 08:56:17;;;;;;;;;;;;;;;21.99;32.89;101994.69;2198222;39;114379;-58
2021/04/19 08:58:08;;;;;;;;;;;;;;;21.97;32.70;101989.38;2195504;39;115010;-57